Back to Top

Language: 

My Weather Underground Personal Weather Station Historical Data with Graphs...

Delerius Weather Station Historical Data
Daily Summary for November 26, 2017 Units:  English    Metric   Both
« Previous Day
Next Day »
Daily Weekly Monthly Yearly Custom
  High: Low: Average:
Temperature: 46.9 °F 37.8 °F 40.6 °F
Dew Point: 43.9 °F 33.9 °F 36.9 °F
Humidity: 93 % 81 % 87 %
Wind Speed: 17.0 mph 0.0 mph 7.9 mph
Wind Gust: 31.0 mph - -
Wind:- - West
Pressure: 30.17 in 29.94 in -
Precipitation: 0.00 in    
Historical Graphs
 
 
Tabular Data for November 26, 2017
Time Temperature Dew Point Pressure Wind Wind Speed Wind Gust Humidity Rainfall Rate (Hourly) solar Conditions
00:02 38.1 °F 34.6 °F 30.04 in WNW 10.0 mph 16.0 mph 87 % 0.00 in 0 W/m2
00:07 38.1 °F 34.6 °F 30.03 in West 14.0 mph 22.0 mph 87 % 0.00 in 0 W/m2
00:12 38.1 °F 34.6 °F 30.03 in WNW 12.0 mph 18.0 mph 87 % 0.00 in 0 W/m2
00:17 37.9 °F 34.4 °F 30.04 in WNW 10.0 mph 16.0 mph 87 % 0.00 in 0 W/m2
00:22 38.1 °F 34.6 °F 30.03 in WNW 13.0 mph 20.0 mph 87 % 0.00 in 0 W/m2
00:27 38.3 °F 34.8 °F 30.03 in West 12.0 mph 22.0 mph 87 % 0.00 in 0 W/m2
00:32 38.5 °F 34.7 °F 30.03 in West 14.0 mph 23.0 mph 86 % 0.00 in 0 W/m2
00:37 38.7 °F 34.8 °F 30.04 in West 14.0 mph 22.0 mph 86 % 0.00 in 0 W/m2
00:43 38.7 °F 34.8 °F 30.04 in West 14.0 mph 23.0 mph 86 % 0.00 in 0 W/m2
00:48 38.7 °F 34.8 °F 30.04 in West 14.0 mph 21.0 mph 86 % 0.00 in 0 W/m2
00:53 38.7 °F 34.8 °F 30.04 in West 16.0 mph 24.0 mph 86 % 0.00 in 0 W/m2
00:58 38.7 °F 34.8 °F 30.04 in West 13.0 mph 25.0 mph 86 % 0.00 in 0 W/m2
01:03 38.7 °F 34.8 °F 30.03 in WNW 16.0 mph 31.0 mph 86 % 0.00 in 0 W/m2
01:08 38.7 °F 34.8 °F 30.03 in West 17.0 mph 28.0 mph 86 % 0.00 in 0 W/m2
01:13 38.7 °F 34.8 °F 30.04 in West 14.0 mph 21.0 mph 86 % 0.00 in 0 W/m2
01:18 38.5 °F 34.7 °F 30.04 in West 11.0 mph 21.0 mph 86 % 0.00 in 0 W/m2
01:23 38.5 °F 34.7 °F 30.05 in West 14.0 mph 20.0 mph 86 % 0.00 in 0 W/m2
01:33 38.5 °F 34.7 °F 30.05 in WNW 14.0 mph 21.0 mph 86 % 0.00 in 0 W/m2
01:38 38.5 °F 34.7 °F 30.06 in WNW 11.0 mph 21.0 mph 86 % 0.00 in 0 W/m2
01:43 38.5 °F 34.7 °F 30.06 in WNW 10.0 mph 15.0 mph 86 % 0.00 in 0 W/m2
01:48 38.3 °F 34.5 °F 30.06 in WNW 12.0 mph 20.0 mph 86 % 0.00 in 0 W/m2
01:53 38.3 °F 34.5 °F 30.07 in WNW 13.0 mph 21.0 mph 86 % 0.00 in 0 W/m2
01:58 38.1 °F 34.3 °F 30.06 in WNW 9.0 mph 13.0 mph 86 % 0.00 in 0 W/m2
02:03 37.9 °F 34.1 °F 30.06 in WNW 10.0 mph 14.0 mph 86 % 0.00 in 0 W/m2
02:08 37.9 °F 34.1 °F 30.06 in WNW 10.0 mph 14.0 mph 86 % 0.00 in 0 W/m2
02:13 37.8 °F 33.9 °F 30.06 in WNW 8.0 mph 13.0 mph 86 % 0.00 in 0 W/m2
02:18 37.9 °F 34.4 °F 30.07 in West 12.0 mph 20.0 mph 87 % 0.00 in 0 W/m2
02:23 37.9 °F 34.4 °F 30.07 in West 10.0 mph 15.0 mph 87 % 0.00 in 0 W/m2
02:28 37.9 °F 34.4 °F 30.07 in WNW 9.0 mph 12.0 mph 87 % 0.00 in 0 W/m2
02:33 37.9 °F 34.4 °F 30.07 in WNW 7.0 mph 12.0 mph 87 % 0.00 in 0 W/m2
02:38 37.9 °F 34.7 °F 30.07 in WNW 9.0 mph 14.0 mph 88 % 0.00 in 0 W/m2
02:43 37.9 °F 34.7 °F 30.07 in WNW 10.0 mph 18.0 mph 88 % 0.00 in 0 W/m2
02:48 37.9 °F 34.7 °F 30.07 in WNW 9.0 mph 13.0 mph 88 % 0.00 in 0 W/m2
02:53 38.1 °F 34.9 °F 30.07 in WNW 10.0 mph 15.0 mph 88 % 0.00 in 0 W/m2
02:58 38.1 °F 34.9 °F 30.07 in West 12.0 mph 20.0 mph 88 % 0.00 in 0 W/m2
03:00 38.1 °F 34.9 °F 30.07 in West 10.0 mph 15.0 mph 88 % 0.00 in 0 W/m2
03:05 38.5 °F 35.2 °F 30.07 in WNW 11.0 mph 16.0 mph 88 % 0.00 in 0 W/m2
03:10 38.5 °F 35.2 °F 30.07 in WNW 11.0 mph 18.0 mph 88 % 0.00 in 0 W/m2
03:15 38.5 °F 35.2 °F 30.07 in WNW 11.0 mph 15.0 mph 88 % 0.00 in 0 W/m2
03:16 38.5 °F 35.2 °F 30.07 in WNW 11.0 mph 16.0 mph 88 % 0.00 in 0 W/m2
03:21 38.7 °F 35.4 °F 30.07 in WNW 10.0 mph 14.0 mph 88 % 0.00 in 0 W/m2
03:26 38.7 °F 35.4 °F 30.07 in WNW 12.0 mph 19.0 mph 88 % 0.00 in 0 W/m2
03:31 38.7 °F 35.1 °F 30.07 in WNW 8.0 mph 13.0 mph 87 % 0.00 in 0 W/m2
03:36 38.7 °F 35.1 °F 30.07 in WNW 12.0 mph 19.0 mph 87 % 0.00 in 0 W/m2
03:41 38.5 °F 35.2 °F 30.07 in WNW 11.0 mph 16.0 mph 88 % 0.00 in 0 W/m2
03:46 38.5 °F 35.2 °F 30.07 in WNW 11.0 mph 19.0 mph 88 % 0.00 in 0 W/m2
03:51 38.5 °F 35.2 °F 30.07 in WNW 10.0 mph 15.0 mph 88 % 0.00 in 0 W/m2
03:56 38.5 °F 35.2 °F 30.08 in WNW 10.0 mph 14.0 mph 88 % 0.00 in 0 W/m2
04:01 38.5 °F 35.2 °F 30.08 in WNW 9.0 mph 14.0 mph 88 % 0.00 in 0 W/m2
04:06 38.5 °F 35.2 °F 30.07 in WNW 7.0 mph 12.0 mph 88 % 0.00 in 0 W/m2
04:11 38.3 °F 34.8 °F 30.07 in WNW 8.0 mph 12.0 mph 87 % 0.00 in 0 W/m2
04:16 38.1 °F 34.9 °F 30.07 in WNW 8.0 mph 16.0 mph 88 % 0.00 in 0 W/m2
04:21 38.1 °F 34.6 °F 30.07 in WNW 8.0 mph 13.0 mph 87 % 0.00 in 0 W/m2
04:26 38.1 °F 34.6 °F 30.07 in WNW 6.0 mph 11.0 mph 87 % 0.00 in 0 W/m2
04:31 37.9 °F 34.7 °F 30.07 in WNW 7.0 mph 11.0 mph 88 % 0.00 in 0 W/m2
04:36 37.9 °F 34.7 °F 30.07 in WNW 9.0 mph 16.0 mph 88 % 0.00 in 0 W/m2
04:41 38.1 °F 34.9 °F 30.07 in WNW 9.0 mph 13.0 mph 88 % 0.00 in 0 W/m2
04:46 38.1 °F 34.9 °F 30.07 in WNW 9.0 mph 14.0 mph 88 % 0.00 in 0 W/m2
04:51 38.1 °F 34.9 °F 30.07 in West 11.0 mph 19.0 mph 88 % 0.00 in 0 W/m2
04:56 38.3 °F 35.1 °F 30.07 in WNW 12.0 mph 16.0 mph 88 % 0.00 in 0 W/m2
05:02 38.5 °F 35.2 °F 30.07 in WNW 14.0 mph 20.0 mph 88 % 0.00 in 0 W/m2
05:07 38.5 °F 35.2 °F 30.07 in WNW 14.0 mph 21.0 mph 88 % 0.00 in 0 W/m2
05:12 38.5 °F 35.2 °F 30.07 in WNW 12.0 mph 20.0 mph 88 % 0.00 in 0 W/m2
05:17 38.5 °F 35.2 °F 30.08 in WNW 12.0 mph 18.0 mph 88 % 0.00 in 0 W/m2
05:22 38.7 °F 35.4 °F 30.08 in WNW 14.0 mph 21.0 mph 88 % 0.00 in 0 W/m2
05:27 38.7 °F 35.1 °F 30.08 in WNW 12.0 mph 20.0 mph 87 % 0.00 in 0 W/m2
05:32 38.5 °F 34.9 °F 30.08 in WNW 12.0 mph 19.0 mph 87 % 0.00 in 0 W/m2
05:37 38.5 °F 34.9 °F 30.08 in WNW 13.0 mph 20.0 mph 87 % 0.00 in 0 W/m2
05:42 38.5 °F 34.9 °F 30.08 in West 12.0 mph 21.0 mph 87 % 0.00 in 0 W/m2
05:47 38.5 °F 35.2 °F 30.09 in WNW 11.0 mph 16.0 mph 88 % 0.00 in 0 W/m2
05:52 38.7 °F 35.4 °F 30.09 in WNW 11.0 mph 21.0 mph 88 % 0.00 in 0 W/m2
06:02 38.8 °F 35.6 °F 30.10 in WNW 13.0 mph 19.0 mph 88 % 0.00 in 0 W/m2
06:07 38.8 °F 35.3 °F 30.10 in WNW 10.0 mph 15.0 mph 87 % 0.00 in 0 W/m2
06:12 38.8 °F 35.3 °F 30.10 in WNW 11.0 mph 15.0 mph 87 % 0.00 in 0 W/m2
06:17 38.8 °F 35.0 °F 30.11 in WNW 10.0 mph 16.0 mph 86 % 0.00 in 0 W/m2
06:22 38.8 °F 35.0 °F 30.11 in WNW 9.0 mph 13.0 mph 86 % 0.00 in 0 W/m2
06:27 38.8 °F 35.0 °F 30.11 in WNW 7.0 mph 12.0 mph 86 % 0.00 in 0 W/m2
06:32 38.8 °F 34.7 °F 30.11 in WNW 8.0 mph 13.0 mph 85 % 0.00 in 0 W/m2
06:37 38.8 °F 34.7 °F 30.11 in WNW 9.0 mph 14.0 mph 85 % 0.00 in 0 W/m2
06:42 38.8 °F 34.7 °F 30.11 in WNW 7.0 mph 12.0 mph 85 % 0.00 in 0 W/m2
06:52 39.0 °F 34.9 °F 30.11 in West 12.0 mph 19.0 mph 85 % 0.00 in 0 W/m2
06:57 39.0 °F 34.9 °F 30.12 in West 12.0 mph 22.0 mph 85 % 0.00 in 0 W/m2
07:02 39.0 °F 34.9 °F 30.11 in West 10.0 mph 13.0 mph 85 % 0.00 in 0 W/m2
07:07 38.8 °F 34.7 °F 30.12 in WNW 11.0 mph 18.0 mph 85 % 0.00 in 0 W/m2
07:12 38.8 °F 34.7 °F 30.12 in WNW 10.0 mph 15.0 mph 85 % 0.00 in 0 W/m2
07:17 38.8 °F 35.0 °F 30.12 in West 10.0 mph 14.0 mph 86 % 0.00 in 0 W/m2
07:22 38.8 °F 35.0 °F 30.12 in WNW 9.0 mph 13.0 mph 86 % 0.00 in 0 W/m2
07:27 38.8 °F 35.0 °F 30.13 in WNW 6.0 mph 10.0 mph 86 % 0.00 in 0 W/m2
07:32 38.8 °F 35.0 °F 30.13 in WNW 7.0 mph 12.0 mph 86 % 0.00 in 0 W/m2
07:37 38.8 °F 35.3 °F 30.13 in WNW 11.0 mph 19.0 mph 87 % 0.00 in 0 W/m2
07:43 39.0 °F 35.5 °F 30.13 in West 12.0 mph 19.0 mph 87 % 0.00 in 0 W/m2
07:48 39.0 °F 35.5 °F 30.13 in WNW 11.0 mph 15.0 mph 87 % 0.00 in 0 W/m2
07:53 39.0 °F 35.5 °F 30.14 in WNW 10.0 mph 15.0 mph 87 % 0.00 in 0 W/m2
07:58 38.8 °F 35.3 °F 30.14 in WNW 8.0 mph 11.0 mph 87 % 0.00 in 5 W/m2
08:03 38.8 °F 35.3 °F 30.14 in WNW 9.0 mph 12.0 mph 87 % 0.00 in 7 W/m2
08:06 38.7 °F 35.1 °F 30.14 in WNW 8.0 mph 11.0 mph 87 % 0.00 in 9 W/m2
08:11 38.7 °F 35.1 °F 30.14 in WNW 9.0 mph 15.0 mph 87 % 0.00 in 12 W/m2
08:16 38.7 °F 35.1 °F 30.14 in West 9.0 mph 16.0 mph 87 % 0.00 in 12 W/m2
08:21 38.5 °F 34.7 °F 30.14 in WNW 9.0 mph 15.0 mph 86 % 0.00 in 23 W/m2
08:26 38.5 °F 34.7 °F 30.14 in West 9.0 mph 18.0 mph 86 % 0.00 in 25 W/m2
08:31 38.7 °F 34.8 °F 30.14 in WNW 9.0 mph 15.0 mph 86 % 0.00 in 16 W/m2
08:36 38.7 °F 34.8 °F 30.15 in WNW 10.0 mph 18.0 mph 86 % 0.00 in 25 W/m2
08:41 38.7 °F 35.1 °F 30.15 in WNW 8.0 mph 12.0 mph 87 % 0.00 in 42 W/m2
08:46 38.7 °F 35.1 °F 30.15 in West 9.0 mph 13.0 mph 87 % 0.00 in 46 W/m2
08:51 38.7 °F 35.1 °F 30.15 in WNW 8.0 mph 13.0 mph 87 % 0.00 in 51 W/m2
08:56 38.7 °F 35.1 °F 30.15 in WNW 6.0 mph 9.0 mph 87 % 0.00 in 47 W/m2
09:01 38.8 °F 35.3 °F 30.15 in WNW 7.0 mph 14.0 mph 87 % 0.00 in 54 W/m2
09:06 39.0 °F 35.5 °F 30.15 in WNW 9.0 mph 14.0 mph 87 % 0.00 in 44 W/m2
09:11 39.4 °F 35.5 °F 30.15 in WNW 10.0 mph 16.0 mph 86 % 0.00 in 37 W/m2
09:16 39.6 °F 35.7 °F 30.14 in WNW 11.0 mph 18.0 mph 86 % 0.00 in 39 W/m2
09:21 39.6 °F 35.7 °F 30.15 in WNW 10.0 mph 15.0 mph 86 % 0.00 in 49 W/m2
09:32 39.7 °F 35.9 °F 30.15 in WNW 12.0 mph 16.0 mph 86 % 0.00 in 51 W/m2
09:37 39.9 °F 35.8 °F 30.15 in WNW 9.0 mph 13.0 mph 85 % 0.00 in 53 W/m2
09:42 39.7 °F 35.6 °F 30.15 in WNW 7.0 mph 10.0 mph 85 % 0.00 in 107 W/m2
09:47 39.9 °F 36.1 °F 30.15 in WNW 7.0 mph 10.0 mph 86 % 0.00 in 88 W/m2
09:52 39.9 °F 36.1 °F 30.15 in WNW 6.0 mph 10.0 mph 86 % 0.00 in 56 W/m2
09:57 39.9 °F 35.8 °F 30.15 in WNW 8.0 mph 14.0 mph 85 % 0.00 in 98 W/m2
10:02 40.1 °F 36.2 °F 30.16 in WNW 11.0 mph 16.0 mph 86 % 0.00 in 72 W/m2
10:07 40.1 °F 36.0 °F 30.15 in West 9.0 mph 13.0 mph 85 % 0.00 in 54 W/m2
10:12 40.1 °F 36.0 °F 30.15 in WNW 7.0 mph 10.0 mph 85 % 0.00 in 44 W/m2
10:17 39.9 °F 35.8 °F 30.16 in WNW 8.0 mph 13.0 mph 85 % 0.00 in 155 W/m2
10:22 40.3 °F 36.4 °F 30.16 in WNW 10.0 mph 15.0 mph 86 % 0.00 in 290 W/m2
10:27 40.5 °F 36.3 °F 30.16 in WNW 8.0 mph 14.0 mph 85 % 0.00 in 51 W/m2
10:32 40.5 °F 36.3 °F 30.16 in WNW 8.0 mph 13.0 mph 85 % 0.00 in 54 W/m2
10:37 40.5 °F 36.3 °F 30.16 in WNW 9.0 mph 14.0 mph 85 % 0.00 in 179 W/m2
10:42 40.6 °F 36.8 °F 30.16 in WNW 10.0 mph 16.0 mph 86 % 0.00 in 144 W/m2
10:43 40.6 °F 36.8 °F 30.16 in WNW 10.0 mph 16.0 mph 86 % 0.00 in 139 W/m2
10:48 40.6 °F 36.8 °F 30.17 in WNW 10.0 mph 15.0 mph 86 % 0.00 in 111 W/m2
10:53 40.6 °F 36.5 °F 30.17 in WNW 6.0 mph 10.0 mph 85 % 0.00 in 98 W/m2
10:58 40.8 °F 36.7 °F 30.16 in WNW 7.0 mph 10.0 mph 85 % 0.00 in 120 W/m2
11:03 40.8 °F 36.7 °F 30.16 in WNW 3.0 mph 8.0 mph 85 % 0.00 in 90 W/m2
11:08 41.0 °F 36.8 °F 30.16 in NW 1.0 mph 4.0 mph 85 % 0.00 in 95 W/m2
11:13 41.2 °F 37.0 °F 30.16 in West 7.0 mph 11.0 mph 85 % 0.00 in 76 W/m2
11:18 41.4 °F 37.2 °F 30.16 in WNW 9.0 mph 14.0 mph 85 % 0.00 in 72 W/m2
11:23 41.4 °F 36.9 °F 30.15 in West 10.0 mph 15.0 mph 84 % 0.00 in 98 W/m2
11:28 41.5 °F 37.1 °F 30.16 in West 7.0 mph 12.0 mph 84 % 0.00 in 118 W/m2
11:33 41.5 °F 37.1 °F 30.16 in West 10.0 mph 15.0 mph 84 % 0.00 in 93 W/m2
11:39 41.5 °F 37.1 °F 30.16 in WNW 7.0 mph 11.0 mph 84 % 0.00 in 102 W/m2
11:44 41.5 °F 37.4 °F 30.16 in WNW 6.0 mph 9.0 mph 85 % 0.00 in 81 W/m2
11:49 41.5 °F 37.1 °F 30.16 in West 7.0 mph 13.0 mph 84 % 0.00 in 76 W/m2
11:54 41.5 °F 37.1 °F 30.16 in WNW 6.0 mph 12.0 mph 84 % 0.00 in 97 W/m2
11:59 41.5 °F 37.1 °F 30.17 in West 7.0 mph 12.0 mph 84 % 0.00 in 141 W/m2
12:04 41.5 °F 37.1 °F 30.17 in WNW 6.0 mph 9.0 mph 84 % 0.00 in 105 W/m2
12:09 41.7 °F 37.2 °F 30.17 in West 8.0 mph 12.0 mph 84 % 0.00 in 90 W/m2
12:14 41.9 °F 37.4 °F 30.17 in WNW 10.0 mph 14.0 mph 84 % 0.00 in 77 W/m2
12:18 42.1 °F 37.6 °F 30.17 in WNW 9.0 mph 13.0 mph 84 % 0.00 in 74 W/m2
12:23 42.1 °F 37.6 °F 30.16 in WNW 11.0 mph 19.0 mph 84 % 0.00 in 76 W/m2
12:28 41.9 °F 37.4 °F 30.17 in WNW 10.0 mph 16.0 mph 84 % 0.00 in 83 W/m2
12:33 41.9 °F 37.4 °F 30.17 in WNW 9.0 mph 13.0 mph 84 % 0.00 in 88 W/m2
12:38 41.9 °F 37.4 °F 30.17 in WNW 9.0 mph 14.0 mph 84 % 0.00 in 72 W/m2
12:43 42.1 °F 37.3 °F 30.17 in WNW 9.0 mph 15.0 mph 83 % 0.00 in 90 W/m2
12:48 42.1 °F 37.3 °F 30.17 in WNW 10.0 mph 16.0 mph 83 % 0.00 in 105 W/m2
12:53 42.3 °F 37.2 °F 30.16 in WNW 11.0 mph 18.0 mph 82 % 0.00 in 97 W/m2
12:58 42.3 °F 37.2 °F 30.17 in WNW 11.0 mph 18.0 mph 82 % 0.00 in 81 W/m2
13:03 42.3 °F 36.8 °F 30.16 in WNW 11.0 mph 16.0 mph 81 % 0.00 in 63 W/m2
13:08 42.3 °F 36.8 °F 30.17 in West 12.0 mph 19.0 mph 81 % 0.00 in 51 W/m2
13:13 42.1 °F 37.3 °F 30.17 in WNW 13.0 mph 21.0 mph 83 % 0.00 in 53 W/m2
13:19 41.9 °F 37.7 °F 30.17 in WNW 9.0 mph 16.0 mph 85 % 0.00 in 60 W/m2
13:24 41.5 °F 37.4 °F 30.17 in West 10.0 mph 14.0 mph 85 % 0.00 in 83 W/m2
13:29 41.4 °F 37.5 °F 30.17 in West 8.0 mph 13.0 mph 86 % 0.00 in 142 W/m2
13:34 41.2 °F 37.6 °F 30.16 in West 9.0 mph 15.0 mph 87 % 0.00 in 60 W/m2
13:39 41.0 °F 37.4 °F 30.16 in West 9.0 mph 13.0 mph 87 % 0.00 in 56 W/m2
13:44 40.8 °F 37.3 °F 30.16 in West 9.0 mph 13.0 mph 87 % 0.00 in 100 W/m2
13:49 41.0 °F 37.4 °F 30.16 in WNW 9.0 mph 12.0 mph 87 % 0.00 in 199 W/m2
13:54 41.2 °F 37.6 °F 30.16 in West 6.0 mph 9.0 mph 87 % 0.00 in 132 W/m2
13:59 41.7 °F 38.1 °F 30.16 in West 5.0 mph 9.0 mph 87 % 0.00 in 188 W/m2
14:04 42.3 °F 38.4 °F 30.16 in West 6.0 mph 9.0 mph 86 % 0.00 in 70 W/m2
14:09 42.4 °F 38.5 °F 30.16 in WNW 9.0 mph 15.0 mph 86 % 0.00 in 90 W/m2
14:14 42.4 °F 37.9 °F 30.16 in WNW 8.0 mph 14.0 mph 84 % 0.00 in 51 W/m2
14:19 42.4 °F 37.9 °F 30.16 in West 7.0 mph 10.0 mph 84 % 0.00 in 70 W/m2
14:24 42.4 °F 37.9 °F 30.16 in West 7.0 mph 10.0 mph 84 % 0.00 in 76 W/m2
14:34 43.0 °F 38.5 °F 30.16 in WSW 4.0 mph 8.0 mph 84 % 0.00 in 172 W/m2
14:39 43.2 °F 38.7 °F 30.16 in WNW 2.0 mph 7.0 mph 84 % 0.00 in 69 W/m2
14:44 43.2 °F 38.3 °F 30.16 in West 5.0 mph 8.0 mph 83 % 0.00 in 121 W/m2
14:49 43.2 °F 38.3 °F 30.16 in WSW 4.0 mph 7.0 mph 83 % 0.00 in 58 W/m2
14:54 43.2 °F 38.3 °F 30.16 in West 4.0 mph 6.0 mph 83 % 0.00 in 98 W/m2
14:59 43.2 °F 38.3 °F 30.16 in WNW 6.0 mph 11.0 mph 83 % 0.00 in 67 W/m2
15:04 43.2 °F 38.3 °F 30.16 in West 9.0 mph 13.0 mph 83 % 0.00 in 28 W/m2
15:09 43.2 °F 38.3 °F 30.16 in WNW 9.0 mph 13.0 mph 83 % 0.00 in 18 W/m2
15:14 43.0 °F 38.2 °F 30.16 in WNW 8.0 mph 13.0 mph 83 % 0.00 in 16 W/m2
15:19 42.6 °F 38.1 °F 30.16 in WNW 6.0 mph 12.0 mph 84 % 0.00 in 16 W/m2
15:24 42.6 °F 38.1 °F 30.16 in WNW 5.0 mph 9.0 mph 84 % 0.00 in 14 W/m2
15:29 42.4 °F 37.9 °F 30.16 in WNW 3.0 mph 6.0 mph 84 % 0.00 in 12 W/m2
15:34 42.3 °F 37.8 °F 30.16 in West 5.0 mph 8.0 mph 84 % 0.00 in 11 W/m2
15:40 42.1 °F 37.6 °F 30.16 in West 4.0 mph 9.0 mph 84 % 0.00 in 11 W/m2
15:41 42.1 °F 37.6 °F 30.16 in West 3.0 mph 6.0 mph 84 % 0.00 in 12 W/m2
15:46 41.7 °F 37.2 °F 30.16 in WNW 7.0 mph 12.0 mph 84 % 0.00 in 9 W/m2
15:51 41.7 °F 37.5 °F 30.16 in West 8.0 mph 12.0 mph 85 % 0.00 in 7 W/m2
15:56 41.7 °F 37.5 °F 30.15 in WNW 10.0 mph 14.0 mph 85 % 0.00 in 5 W/m2
16:01 41.7 °F 37.5 °F 30.15 in WNW 7.0 mph 14.0 mph 85 % 0.00 in 0 W/m2
16:06 41.7 °F 37.5 °F 30.15 in West 7.0 mph 13.0 mph 85 % 0.00 in 0 W/m2
16:11 41.5 °F 37.4 °F 30.15 in West 6.0 mph 11.0 mph 85 % 0.00 in 0 W/m2
16:16 41.4 °F 37.5 °F 30.15 in West 5.0 mph 8.0 mph 86 % 0.00 in 0 W/m2
16:21 41.2 °F 37.3 °F 30.15 in West 2.0 mph 8.0 mph 86 % 0.00 in 0 W/m2
16:26 41.0 °F 37.1 °F 30.15 in West 4.0 mph 6.0 mph 86 % 0.00 in 0 W/m2
16:31 41.2 °F 37.6 °F 30.14 in West 8.0 mph 14.0 mph 87 % 0.00 in 0 W/m2
16:36 41.2 °F 37.6 °F 30.14 in WNW 5.0 mph 8.0 mph 87 % 0.00 in 0 W/m2
16:41 41.0 °F 37.4 °F 30.14 in WNW 7.0 mph 12.0 mph 87 % 0.00 in 0 W/m2
16:46 41.0 °F 37.4 °F 30.15 in WNW 5.0 mph 8.0 mph 87 % 0.00 in 0 W/m2
16:51 40.8 °F 37.3 °F 30.15 in West 4.0 mph 7.0 mph 87 % 0.00 in 0 W/m2
16:56 40.8 °F 37.3 °F 30.15 in West 5.0 mph 8.0 mph 87 % 0.00 in 0 W/m2
17:01 41.0 °F 37.4 °F 30.15 in West 3.0 mph 6.0 mph 87 % 0.00 in 0 W/m2
17:06 41.0 °F 37.4 °F 30.15 in WNW 4.0 mph 6.0 mph 87 % 0.00 in 0 W/m2
17:11 41.2 °F 37.6 °F 30.15 in West 4.0 mph 7.0 mph 87 % 0.00 in 0 W/m2
17:16 41.2 °F 37.6 °F 30.15 in West 2.0 mph 5.0 mph 87 % 0.00 in 0 W/m2
17:21 41.2 °F 37.6 °F 30.15 in WSW 4.0 mph 7.0 mph 87 % 0.00 in 0 W/m2
17:26 41.2 °F 37.6 °F 30.14 in WSW 2.0 mph 5.0 mph 87 % 0.00 in 0 W/m2
17:31 41.0 °F 37.4 °F 30.14 in WSW 3.0 mph 9.0 mph 87 % 0.00 in 0 W/m2
17:37 41.2 °F 37.6 °F 30.14 in WSW 4.0 mph 7.0 mph 87 % 0.00 in 0 W/m2
17:42 41.4 °F 37.8 °F 30.14 in WSW 1.0 mph 4.0 mph 87 % 0.00 in 0 W/m2
17:47 41.2 °F 37.6 °F 30.14 in WSW 2.0 mph 5.0 mph 87 % 0.00 in 0 W/m2
17:52 41.2 °F 37.6 °F 30.14 in WSW 7.0 mph 10.0 mph 87 % 0.00 in 0 W/m2
17:57 41.4 °F 37.8 °F 30.14 in WSW 3.0 mph 5.0 mph 87 % 0.00 in 0 W/m2
18:02 41.2 °F 37.6 °F 30.13 in SW 1.0 mph 4.0 mph 87 % 0.00 in 0 W/m2
18:07 41.0 °F 37.4 °F 30.13 in Calm   2.0 mph 87 % 0.00 in 0 W/m2
18:12 40.8 °F 37.3 °F 30.14 in Calm     87 % 0.00 in 0 W/m2
18:17 40.6 °F 37.1 °F 30.13 in Calm   2.0 mph 87 % 0.00 in 0 W/m2
18:22 40.5 °F 37.2 °F 30.13 in Calm   2.0 mph 88 % 0.00 in 0 W/m2
18:27 40.5 °F 37.2 °F 30.13 in SW 2.0 mph 5.0 mph 88 % 0.00 in 0 W/m2
18:32 40.5 °F 37.5 °F 30.13 in WSW 4.0 mph 8.0 mph 89 % 0.00 in 0 W/m2
18:37 40.6 °F 37.7 °F 30.14 in West 7.0 mph 12.0 mph 89 % 0.00 in 0 W/m2
18:42 40.8 °F 38.1 °F 30.13 in WSW 7.0 mph 9.0 mph 90 % 0.00 in 0 W/m2
18:47 41.2 °F 38.5 °F 30.14 in WSW 6.0 mph 11.0 mph 90 % 0.00 in 0 W/m2
18:52 41.4 °F 38.6 °F 30.13 in WSW 7.0 mph 12.0 mph 90 % 0.00 in 0 W/m2
18:57 41.5 °F 38.8 °F 30.13 in WSW 6.0 mph 9.0 mph 90 % 0.00 in 0 W/m2
19:02 41.7 °F 39.0 °F 30.13 in WSW 6.0 mph 9.0 mph 90 % 0.00 in 0 W/m2
19:07 41.7 °F 39.0 °F 30.13 in WSW 7.0 mph 10.0 mph 90 % 0.00 in 0 W/m2
19:12 41.9 °F 39.2 °F 30.13 in WSW 7.0 mph 11.0 mph 90 % 0.00 in 0 W/m2
19:17 41.9 °F 39.2 °F 30.13 in West 6.0 mph 9.0 mph 90 % 0.00 in 0 W/m2
19:28 41.7 °F 39.0 °F 30.12 in WSW 6.0 mph 9.0 mph 90 % 0.00 in 0 W/m2
19:33 41.7 °F 39.0 °F 30.12 in WSW 6.0 mph 9.0 mph 90 % 0.00 in 0 W/m2
19:38 41.5 °F 38.8 °F 30.12 in WSW 6.0 mph 9.0 mph 90 % 0.00 in 0 W/m2
19:43 41.5 °F 38.8 °F 30.12 in WSW 4.0 mph 7.0 mph 90 % 0.00 in 0 W/m2
19:48 41.5 °F 38.5 °F 30.11 in SW 3.0 mph 5.0 mph 89 % 0.00 in 0 W/m2
19:53 41.5 °F 38.5 °F 30.11 in SW 3.0 mph 7.0 mph 89 % 0.00 in 0 W/m2
19:58 41.5 °F 38.5 °F 30.11 in SW 2.0 mph 5.0 mph 89 % 0.00 in 0 W/m2
20:03 41.5 °F 38.5 °F 30.10 in SW 4.0 mph 12.0 mph 89 % 0.00 in 0 W/m2
20:08 41.5 °F 38.5 °F 30.10 in SSW 2.0 mph 6.0 mph 89 % 0.00 in 0 W/m2
20:13 41.4 °F 38.4 °F 30.10 in SW 4.0 mph 7.0 mph 89 % 0.00 in 0 W/m2
20:18 41.4 °F 38.4 °F 30.10 in SW 2.0 mph 6.0 mph 89 % 0.00 in 0 W/m2
20:28 41.4 °F 38.1 °F 30.09 in SW 4.0 mph 6.0 mph 88 % 0.00 in 0 W/m2
20:33 41.4 °F 38.4 °F 30.09 in SW 4.0 mph 7.0 mph 89 % 0.00 in 0 W/m2
20:38 41.4 °F 38.4 °F 30.08 in SW 5.0 mph 7.0 mph 89 % 0.00 in 0 W/m2
20:43 41.5 °F 38.5 °F 30.08 in SW 4.0 mph 8.0 mph 89 % 0.00 in 0 W/m2
20:48 41.7 °F 38.7 °F 30.07 in SSW 5.0 mph 9.0 mph 89 % 0.00 in 0 W/m2
20:53 41.9 °F 38.6 °F 30.07 in South 4.0 mph 8.0 mph 88 % 0.00 in 0 W/m2
20:58 42.1 °F 38.8 °F 30.07 in SSW 4.0 mph 9.0 mph 88 % 0.00 in 0 W/m2
21:03 42.3 °F 39.0 °F 30.06 in South 6.0 mph 8.0 mph 88 % 0.00 in 0 W/m2
21:04 42.3 °F 39.0 °F 30.06 in SSW 5.0 mph 8.0 mph 88 % 0.00 in 0 W/m2
21:09 42.4 °F 38.8 °F 30.06 in SSW 5.0 mph 7.0 mph 87 % 0.00 in 0 W/m2
21:14 42.4 °F 38.8 °F 30.06 in SSW 4.0 mph 8.0 mph 87 % 0.00 in 0 W/m2
21:19 42.4 °F 38.8 °F 30.05 in SW 5.0 mph 9.0 mph 87 % 0.00 in 0 W/m2
21:24 42.4 °F 38.8 °F 30.05 in SSW 4.0 mph 6.0 mph 87 % 0.00 in 0 W/m2
21:29 42.4 °F 39.1 °F 30.05 in SSW 5.0 mph 9.0 mph 88 % 0.00 in 0 W/m2
21:34 42.6 °F 39.3 °F 30.04 in SSW 5.0 mph 8.0 mph 88 % 0.00 in 0 W/m2
21:39 42.6 °F 39.6 °F 30.04 in SSW 5.0 mph 8.0 mph 89 % 0.00 in 0 W/m2
21:44 42.6 °F 39.6 °F 30.04 in SSW 6.0 mph 12.0 mph 89 % 0.00 in 0 W/m2
21:49 42.6 °F 39.6 °F 30.04 in SSW 6.0 mph 10.0 mph 89 % 0.00 in 0 W/m2
21:54 42.6 °F 39.6 °F 30.03 in SSW 8.0 mph 12.0 mph 89 % 0.00 in 0 W/m2
21:59 42.6 °F 39.9 °F 30.03 in South 9.0 mph 13.0 mph 90 % 0.00 in 0 W/m2
22:04 42.6 °F 39.9 °F 30.02 in SSW 6.0 mph 10.0 mph 90 % 0.00 in 0 W/m2
22:09 42.4 °F 39.7 °F 30.02 in SSW 7.0 mph 11.0 mph 90 % 0.00 in 0 W/m2
22:14 42.4 °F 39.7 °F 30.02 in South 6.0 mph 9.0 mph 90 % 0.00 in 0 W/m2
22:19 42.3 °F 39.5 °F 30.01 in SSW 5.0 mph 7.0 mph 90 % 0.00 in 0 W/m2
22:24 42.3 °F 39.8 °F 30.01 in SSW 5.0 mph 7.0 mph 91 % 0.00 in 0 W/m2
22:29 42.3 °F 39.8 °F 30.00 in SSW 6.0 mph 8.0 mph 91 % 0.00 in 0 W/m2
22:34 42.4 °F 40.0 °F 30.00 in SSW 5.0 mph 7.0 mph 91 % 0.00 in 0 W/m2
22:39 42.4 °F 40.0 °F 30.00 in SSW 5.0 mph 8.0 mph 91 % 0.00 in 0 W/m2
22:44 42.6 °F 40.2 °F 30.00 in SSW 4.0 mph 7.0 mph 91 % 0.00 in 0 W/m2
22:49 42.8 °F 40.4 °F 30.00 in SSW 3.0 mph 7.0 mph 91 % 0.00 in 0 W/m2
22:54 43.0 °F 40.5 °F 29.99 in SSW 4.0 mph 6.0 mph 91 % 0.00 in 0 W/m2
22:59 43.0 °F 40.5 °F 29.99 in SSW 5.0 mph 9.0 mph 91 % 0.00 in 0 W/m2
23:04 43.2 °F 41.0 °F 29.98 in SSW 4.0 mph 7.0 mph 92 % 0.00 in 0 W/m2
23:09 43.3 °F 41.2 °F 29.97 in SSW 8.0 mph 11.0 mph 92 % 0.00 in 0 W/m2
23:14 43.7 °F 41.5 °F 29.97 in SW 7.0 mph 13.0 mph 92 % 0.00 in 0 W/m2
23:19 43.9 °F 41.7 °F 29.96 in SW 5.0 mph 8.0 mph 92 % 0.00 in 0 W/m2
23:24 44.2 °F 42.3 °F 29.95 in SW 8.0 mph 13.0 mph 93 % 0.00 in 0 W/m2
23:29 45.3 °F 43.4 °F 29.95 in SW 12.0 mph 23.0 mph 93 % 0.00 in 0 W/m2
23:34 46.0 °F 43.6 °F 29.95 in SW 9.0 mph 16.0 mph 91 % 0.00 in 0 W/m2
23:39 46.6 °F 43.8 °F 29.95 in SW 12.0 mph 19.0 mph 90 % 0.00 in 0 W/m2
23:44 46.8 °F 43.7 °F 29.95 in WSW 12.0 mph 21.0 mph 89 % 0.00 in 0 W/m2
23:49 46.8 °F 43.7 °F 29.94 in WSW 10.0 mph 15.0 mph 89 % 0.00 in 0 W/m2
23:54 46.8 °F 43.7 °F 29.94 in WSW 8.0 mph 12.0 mph 89 % 0.00 in 0 W/m2
23:59 46.9 °F 43.9 °F 29.94 in WSW 11.0 mph 19.0 mph 89 % 0.00 in 0 W/m2
Delerius-Weather
Compliments of Weather Underground - 2.25 mb

Data updates at regular intervals.